createdAt,value
2023-02-01T00:07:37.867Z,1.30
2023-02-01T00:17:43.031Z,1.40
2023-02-01T00:27:51.904Z,1.40
2023-02-01T00:37:59.658Z,1.40
2023-02-01T00:48:03.405Z,1.30
2023-02-01T00:58:10.457Z,1.20
2023-02-01T01:08:14.924Z,1.00
2023-02-01T01:18:20.176Z,0.40
2023-02-01T01:28:24.389Z,0.60
2023-02-01T01:38:29.618Z,1.10
2023-02-01T01:48:34.105Z,1.40
2023-02-01T01:58:40.927Z,1.50
2023-02-01T02:08:44.963Z,1.40
2023-02-01T02:19:18.306Z,1.10
2023-02-01T02:30:06.848Z,1.10
2023-02-01T02:40:23.306Z,1.00
2023-02-01T02:50:49.642Z,0.90
2023-02-01T03:01:13.394Z,0.80
2023-02-01T03:11:18.417Z,0.60
2023-02-01T03:21:29.566Z,0.50
2023-02-01T03:31:33.890Z,0.30
2023-02-01T03:41:44.410Z,0.20
2023-02-01T03:51:49.240Z,0.40
2023-02-01T04:01:55.128Z,0.30
2023-02-01T04:11:59.316Z,0.30
2023-02-01T04:22:04.495Z,0.20
2023-02-01T04:32:08.776Z,0.10
2023-02-01T04:42:15.026Z,0.20
2023-02-01T04:52:18.741Z,0.10
2023-02-01T05:02:24.049Z,0.10
2023-02-01T05:12:45.195Z,0.10
2023-02-01T05:22:50.510Z,0.20
2023-02-01T05:32:54.950Z,0.10
2023-02-01T05:43:00.204Z,0.10
2023-02-01T05:53:03.976Z,0.10
2023-02-01T06:03:10.367Z,0.20
2023-02-01T06:13:14.073Z,0.20
2023-02-01T06:23:19.376Z,0.30
2023-02-01T06:33:23.364Z,0.50
2023-02-01T06:43:29.737Z,0.70
2023-02-01T06:53:34.068Z,0.90
2023-02-01T07:03:39.880Z,1.20
2023-02-01T07:13:43.762Z,1.40
2023-02-01T07:23:49.063Z,1.50
2023-02-01T07:33:53.712Z,1.60
2023-02-01T07:43:58.922Z,1.80
2023-02-01T07:54:02.640Z,2.00
2023-02-01T08:04:07.720Z,2.20
2023-02-01T08:14:11.542Z,2.30
2023-02-01T08:24:17.106Z,2.60
2023-02-01T08:34:20.637Z,2.80
2023-02-01T08:44:25.806Z,2.90
2023-02-01T08:54:29.457Z,3.00
2023-02-01T09:04:34.801Z,3.30
2023-02-01T09:14:38.748Z,3.30
2023-02-01T09:24:44.101Z,3.20
2023-02-01T09:34:47.663Z,4.00
2023-02-01T09:45:12.073Z,4.80
2023-02-01T09:55:21.260Z,4.70
2023-02-01T10:05:51.443Z,5.30
2023-02-01T10:16:21.077Z,5.00
2023-02-01T10:26:33.081Z,5.40
2023-02-01T10:36:44.511Z,5.80
2023-02-01T10:46:49.550Z,5.40
2023-02-01T10:56:54.576Z,6.80
2023-02-01T11:07:14.634Z,6.50
2023-02-01T11:17:29.403Z,6.20
2023-02-01T11:27:40.333Z,6.20
2023-02-01T11:37:52.516Z,5.60
2023-02-01T11:47:58.980Z,4.90
2023-02-01T11:58:23.451Z,4.50
2023-02-01T12:08:59.954Z,4.80
2023-02-01T12:19:36.209Z,5.40
2023-02-01T12:30:02.915Z,6.00
2023-02-01T12:40:24.487Z,4.70
2023-02-01T12:50:34.965Z,3.90
2023-02-01T13:00:43.101Z,3.40
2023-02-01T13:10:56.223Z,3.80
2023-02-01T13:21:07.984Z,4.00
2023-02-01T13:31:42.794Z,3.80
2023-02-01T13:41:57.924Z,3.70
2023-02-01T13:52:02.967Z,3.90
2023-02-01T14:02:49.167Z,3.50
2023-02-01T14:13:06.776Z,3.30
2023-02-01T14:23:18.158Z,3.40
2023-02-01T14:33:27.716Z,3.20
2023-02-01T14:43:52.662Z,3.00
2023-02-01T14:54:00.362Z,2.90
2023-02-01T15:04:07.742Z,2.60
2023-02-01T15:14:16.805Z,2.40
2023-02-01T15:24:29.111Z,2.10
2023-02-01T15:34:50.828Z,1.90
2023-02-01T15:44:54.615Z,1.70
2023-02-01T15:55:03.022Z,1.60
2023-02-01T16:05:08.674Z,1.40
2023-02-01T16:15:13.777Z,1.40
2023-02-01T16:25:17.674Z,1.40
2023-02-01T16:35:27.708Z,1.20
2023-02-01T16:45:31.422Z,1.20
2023-02-01T16:55:36.589Z,1.30
2023-02-01T17:05:40.484Z,1.40
2023-02-01T17:15:52.405Z,1.50
2023-02-01T17:25:56.423Z,1.60
2023-02-01T17:36:02.171Z,1.60
2023-02-01T17:46:13.414Z,1.60
2023-02-01T17:56:20.703Z,1.50
2023-02-01T18:06:27.730Z,1.60
2023-02-01T18:16:35.190Z,1.60
2023-02-01T18:26:39.076Z,1.60
2023-02-01T18:36:44.430Z,1.40
2023-02-01T18:46:48.515Z,1.50
2023-02-01T18:56:54.145Z,1.40
2023-02-01T19:07:00.345Z,1.30
2023-02-01T19:17:06.428Z,1.40
2023-02-01T19:27:10.874Z,1.30
2023-02-01T19:37:36.440Z,1.20
2023-02-01T19:47:40.578Z,1.20
2023-02-01T19:57:48.271Z,1.30
2023-02-01T20:07:51.299Z,1.40
2023-02-01T20:17:56.688Z,1.40
2023-02-01T20:28:01.643Z,1.40
2023-02-01T20:38:07.774Z,1.40
2023-02-01T20:48:13.455Z,1.40
2023-02-01T20:58:18.747Z,1.50
2023-02-01T21:08:22.591Z,1.70
2023-02-01T21:18:27.745Z,1.80
2023-02-01T21:28:31.576Z,1.90
2023-02-01T21:38:36.843Z,1.90
2023-02-01T21:49:04.486Z,1.80
2023-02-01T21:59:07.624Z,2.00
2023-02-01T22:09:18.529Z,1.90
2023-02-01T22:19:24.184Z,1.60
2023-02-01T22:29:28.062Z,1.40
2023-02-01T22:39:33.349Z,1.30
2023-02-01T22:49:37.075Z,1.20
2023-02-01T22:59:42.307Z,1.20
2023-02-01T23:09:46.145Z,1.10
2023-02-01T23:19:51.436Z,1.10
2023-02-01T23:29:55.308Z,1.20
2023-02-01T23:40:00.449Z,1.30
2023-02-01T23:50:04.492Z,1.30
